KEED/EED METAR and TAF weather

Enter ICAO airport designator
Station Type Date Time Source
KEED METAR 2020/09/18 19:56 UTC NOAA

KEED 181956Z AUTO 00000KT 10SM CLR 41/M03 A2985 RMK AO2 SLP069 T04111033


Station Type Date Time Source
KEED Decoded METAR 2020/09/18 19:56 UTC NOAA

NEEDLES AIRPORT, CA, United States (KEED) 34-46N 114-37W
Sep 18, 2020 - 03:56 PM EDT / 2020.09.18 1956 UTC
Wind: Calm:0
Visibility: 10 mile(s):0
Sky conditions: clear
Temperature: 106.0 F (41.1 C)
Dew Point: 26.1 F (-3.3 C)
Relative Humidity: 6%
Pressure (altimeter): 29.85 in. Hg (1010 hPa)
ob: KEED 181956Z AUTO 00000KT 10SM CLR 41/M03 A2985 RMK AO2 SLP069 T04111033
cycle: 20

Station Type Date Time Source
KEED TAF 2020/09/18 18:28 UTC NOAA

TAF KEED 181726Z 1818/1918 VRB05KT P6SM SCT250
FM181900 18010G17KT P6SM SCT150 BKN250
FM190200 24008KT P6SM SCT150 SCT250
FM191700 18011G20KT P6SM SKC

Example: see airport list